Time;durP1;ratioP1;P1;durP2;ratioP2;P2;SDS_P1;SDS_P2;PMS_P1;PMS_P2;Temp;Humidity;BMP_temperature;BMP_pressure;BME280_temperature;BME280_humidity;BME280_pressure;Samples;Min_cycle;Max_cycle;Signal;HPM_P1;HPM_P2
2021/09/03 00:01:59;;;;;;;;;14.75;12.00;;;;;-147.91;100.00;58652.34;5066933;28;46473;-96
2021/09/03 00:04:27;;;;;;;;;14.75;13.50;;;;;-147.91;100.00;58652.34;5066307;28;45505;-96
2021/09/03 00:06:54;;;;;;;;;15.50;13.00;;;;;-147.91;100.00;58652.34;5067202;28;45315;-95
2021/09/03 00:09:21;;;;;;;;;18.75;16.25;;;;;-147.91;100.00;58652.34;5065947;28;45201;-95
2021/09/03 00:11:48;;;;;;;;;17.25;17.00;;;;;-147.91;100.00;58652.34;5066767;28;46680;-95
2021/09/03 00:14:17;;;;;;;;;17.00;14.75;;;;;-147.91;100.00;58652.34;5084544;28;45350;-94
2021/09/03 00:16:45;;;;;;;;;16.00;13.75;;;;;-147.91;100.00;58652.34;5085102;28;45387;-94
2021/09/03 00:19:11;;;;;;;;;18.25;14.00;;;;;-147.91;100.00;58652.34;5066203;28;45270;-95
2021/09/03 00:21:39;;;;;;;;;21.50;17.75;;;;;-147.91;100.00;58652.34;5084545;28;45656;-95
2021/09/03 00:24:07;;;;;;;;;18.50;14.25;;;;;-147.91;100.00;58652.34;5067696;28;45974;-96
2021/09/03 00:26:34;;;;;;;;;14.25;14.25;;;;;-147.91;100.00;58652.34;5085469;28;45292;-95
2021/09/03 00:29:02;;;;;;;;;16.75;15.00;;;;;-147.91;100.00;58652.34;5067156;28;45555;-96
2021/09/03 00:31:29;;;;;;;;;15.50;13.50;;;;;-147.91;100.00;58652.34;5067267;28;45328;-96
2021/09/03 00:33:58;;;;;;;;;19.50;16.25;;;;;-147.91;100.00;58652.34;5066597;28;45458;-96
2021/09/03 00:36:26;;;;;;;;;13.50;12.50;;;;;-147.91;100.00;58652.34;5085442;28;45268;-96
2021/09/03 00:38:53;;;;;;;;;19.50;15.50;;;;;-147.91;100.00;58652.34;5066760;28;45284;-96
2021/09/03 00:41:20;;;;;;;;;20.75;16.00;;;;;-147.91;100.00;58652.34;5083639;28;46287;-94
2021/09/03 00:43:48;;;;;;;;;16.25;15.50;;;;;-147.91;100.00;58652.34;5084276;28;45291;-95
2021/09/03 00:46:15;;;;;;;;;19.25;17.50;;;;;-147.91;100.00;58652.34;5084572;28;44719;-95
2021/09/03 00:48:45;;;;;;;;;16.25;14.75;;;;;-147.91;100.00;58652.34;5084231;28;45204;-96
2021/09/03 00:51:11;;;;;;;;;16.00;14.50;;;;;-147.91;100.00;58652.34;5066177;28;47966;-95
2021/09/03 00:53:40;;;;;;;;;16.50;14.50;;;;;-147.91;100.00;58652.34;5084662;28;45484;-95
2021/09/03 00:56:08;;;;;;;;;22.25;16.00;;;;;-147.91;100.00;58652.34;5085531;28;45214;-95
2021/09/03 00:58:35;;;;;;;;;17.00;13.75;;;;;-147.91;100.00;58652.34;5084446;28;45537;-95
2021/09/03 01:01:04;;;;;;;;;21.25;20.25;;;;;-147.91;100.00;58652.34;5084222;28;45453;-96
2021/09/03 01:03:31;;;;;;;;;16.25;16.25;;;;;-147.91;100.00;58652.34;5065502;28;45441;-95
2021/09/03 01:06:05;;;;;;;;;22.25;17.75;;;;;-147.91;100.00;58652.34;5065738;28;45466;-95
2021/09/03 01:08:34;;;;;;;;;17.75;15.50;;;;;-147.91;100.00;58652.34;5083133;27;45526;-95
2021/09/03 01:11:02;;;;;;;;;19.50;16.00;;;;;-147.91;100.00;58652.34;5083812;28;46141;-96
2021/09/03 01:13:30;;;;;;;;;23.50;17.25;;;;;-147.91;100.00;58652.34;5065791;28;45483;-94
2021/09/03 01:15:57;;;;;;;;;18.25;15.50;;;;;-147.91;100.00;58652.34;5084219;28;45218;-95
2021/09/03 01:18:25;;;;;;;;;20.25;16.75;;;;;-147.91;100.00;58652.34;5084142;28;45348;-95
2021/09/03 01:20:53;;;;;;;;;19.00;18.50;;;;;-147.91;100.00;58652.34;5085115;28;46511;-96
2021/09/03 01:23:20;;;;;;;;;21.75;20.00;;;;;-147.91;100.00;58652.34;5084962;28;45490;-96
2021/09/03 01:25:48;;;;;;;;;21.25;20.25;;;;;-147.91;100.00;58652.34;5092394;28;45272;-96
2021/09/03 01:28:16;;;;;;;;;23.75;21.00;;;;;-147.91;100.00;58652.34;5076208;28;45661;-96
2021/09/03 01:30:43;;;;;;;;;29.25;23.75;;;;;-147.91;100.00;58652.34;5093452;28;45544;-95
2021/09/03 01:33:12;;;;;;;;;36.25;31.00;;;;;-147.91;100.00;58652.34;5071837;28;45570;-95
2021/09/03 01:35:39;;;;;;;;;34.25;29.75;;;;;-147.91;100.00;58652.34;5073431;28;44675;-95
2021/09/03 01:38:07;;;;;;;;;42.00;31.00;;;;;-147.91;100.00;58652.34;5085838;28;45456;-95
2021/09/03 01:40:37;;;;;;;;;37.00;31.00;;;;;-147.91;100.00;58652.34;5084112;28;46657;-96
2021/09/03 01:43:05;;;;;;;;;41.25;31.75;;;;;-147.91;100.00;58652.34;5066222;28;45820;-96
2021/09/03 01:45:33;;;;;;;;;36.25;31.75;;;;;-147.91;100.00;58652.34;5067072;28;45342;-95
2021/09/03 01:48:01;;;;;;;;;33.00;32.25;;;;;-147.91;100.00;58652.34;5083451;28;45406;-96
2021/09/03 01:50:27;;;;;;;;;32.25;30.75;;;;;-147.91;100.00;58652.34;5082335;28;45223;-96
2021/09/03 01:52:58;;;;;;;;;39.25;31.25;;;;;-147.91;100.00;58652.34;5065540;28;45467;-96
2021/09/03 01:55:25;;;;;;;;;38.00;33.00;;;;;-147.91;100.00;58652.34;5083500;28;45339;-95
2021/09/03 01:57:52;;;;;;;;;41.00;32.25;;;;;-147.91;100.00;58652.34;5083755;28;45604;-96
2021/09/03 02:00:20;;;;;;;;;44.50;33.50;;;;;-147.91;100.00;58652.34;5065088;28;45348;-96
2021/09/03 02:02:47;;;;;;;;;42.00;35.25;;;;;-147.91;100.00;58652.34;5082874;28;45768;-95
2021/09/03 02:05:16;;;;;;;;;39.50;33.75;;;;;-147.91;100.00;58652.34;5065250;28;45371;-95
2021/09/03 02:07:43;;;;;;;;;39.00;33.75;;;;;-147.91;100.00;58652.34;5080725;28;45537;-96
2021/09/03 02:10:10;;;;;;;;;40.75;32.50;;;;;-147.91;100.00;58652.34;5061156;28;48571;-95
2021/09/03 02:12:37;;;;;;;;;34.25;29.75;;;;;-147.91;100.00;58652.34;5078497;28;45418;-96
2021/09/03 02:15:05;;;;;;;;;38.50;32.75;;;;;-147.91;100.00;58652.34;5078476;28;45432;-96
2021/09/03 02:17:36;;;;;;;;;43.50;35.00;;;;;-147.91;100.00;58652.34;5079024;28;45215;-93
2021/09/03 02:20:04;;;;;;;;;38.25;32.25;;;;;-147.91;100.00;58652.34;5059289;28;45468;-95
2021/09/03 02:22:31;;;;;;;;;36.50;30.50;;;;;-147.91;100.00;58652.34;5078961;28;45479;-96
2021/09/03 02:24:59;;;;;;;;;34.25;31.00;;;;;-147.91;100.00;58652.34;5060747;28;45277;-95
2021/09/03 02:27:26;;;;;;;;;34.75;31.50;;;;;-147.91;100.00;58652.34;5060963;28;45498;-96
2021/09/03 02:29:53;;;;;;;;;32.50;28.75;;;;;-147.91;100.00;58652.34;5060963;28;45331;-95
2021/09/03 02:32:21;;;;;;;;;36.75;32.25;;;;;-147.91;100.00;58652.34;5060306;28;45548;-96
2021/09/03 02:34:48;;;;;;;;;38.00;29.25;;;;;-147.91;100.00;58652.34;5078115;28;45247;-96
2021/09/03 02:37:16;;;;;;;;;39.75;29.00;;;;;-147.91;100.00;58652.34;5060318;28;45465;-94
2021/09/03 02:39:43;;;;;;;;;37.50;31.00;;;;;-147.91;100.00;58652.34;5077804;28;47214;-95
2021/09/03 02:42:11;;;;;;;;;34.50;26.50;;;;;-147.91;100.00;58652.34;5078295;28;45450;-95
2021/09/03 02:44:38;;;;;;;;;28.75;25.00;;;;;-147.91;100.00;58652.34;5078682;28;45288;-96
2021/09/03 02:47:05;;;;;;;;;34.50;30.00;;;;;-147.91;100.00;58652.34;5078324;28;45573;-95
2021/09/03 02:49:31;;;;;;;;;33.50;26.50;;;;;-147.91;100.00;58652.34;5060304;28;45452;-96
2021/09/03 02:51:59;;;;;;;;;41.25;28.00;;;;;-147.91;100.00;58652.34;5060233;28;45555;-96
2021/09/03 02:54:27;;;;;;;;;36.25;30.00;;;;;-147.91;100.00;58652.34;5078680;28;45206;-94
2021/09/03 02:56:55;;;;;;;;;39.50;32.25;;;;;-147.91;100.00;58652.34;5060294;28;45479;-95
2021/09/03 02:59:22;;;;;;;;;38.00;32.50;;;;;-147.91;100.00;58652.34;5078061;28;46438;-96
2021/09/03 03:01:51;;;;;;;;;46.25;32.50;;;;;-147.91;100.00;58652.34;5060563;28;45277;-95
2021/09/03 03:04:18;;;;;;;;;38.50;29.25;;;;;-147.91;100.00;58652.34;5059816;28;45515;-95
2021/09/03 03:06:46;;;;;;;;;36.75;29.25;;;;;-147.91;100.00;58652.34;5077993;28;45452;-95
2021/09/03 03:09:13;;;;;;;;;43.00;32.25;;;;;-147.91;100.00;58652.34;5060279;28;45431;-96
2021/09/03 03:11:39;;;;;;;;;45.25;34.00;;;;;-147.91;100.00;58652.34;5061263;28;45558;-95
2021/09/03 03:14:14;;;;;;;;;39.00;32.50;;;;;-147.91;100.00;58652.34;5060964;28;45274;-96
2021/09/03 03:16:42;;;;;;;;;38.50;31.00;;;;;-147.91;100.00;58652.34;5078278;28;45546;-95
2021/09/03 03:19:10;;;;;;;;;33.25;28.25;;;;;-147.91;100.00;58652.34;5060269;28;48068;-96
2021/09/03 03:21:38;;;;;;;;;41.75;32.25;;;;;-147.91;100.00;58652.34;5077721;28;45574;-96
2021/09/03 03:24:06;;;;;;;;;35.00;30.75;;;;;-147.91;100.00;58652.34;5078308;28;45284;-95
2021/09/03 03:26:33;;;;;;;;;42.75;32.25;;;;;-147.91;100.00;58652.34;5061038;28;45226;-95
2021/09/03 03:29:00;;;;;;;;;33.25;30.25;;;;;-147.91;100.00;58652.34;5077672;28;45458;-95
2021/09/03 03:31:31;;;;;;;;;44.75;31.75;;;;;-147.91;100.00;58652.34;5061406;28;45397;-95
2021/09/03 03:33:59;;;;;;;;;38.25;31.50;;;;;-147.91;100.00;58652.34;5081333;28;45501;-95
2021/09/03 03:36:25;;;;;;;;;39.50;31.50;;;;;-147.91;100.00;58652.34;5062584;28;45608;-94
2021/09/03 03:38:58;;;;;;;;;39.50;32.25;;;;;-147.91;100.00;58652.34;5063091;28;45381;-95
2021/09/03 03:41:25;;;;;;;;;39.25;30.75;;;;;-147.91;100.00;58652.34;5063412;28;45561;-95
2021/09/03 03:43:52;;;;;;;;;38.50;32.00;;;;;-147.91;100.00;58652.34;5081652;28;45331;-95
2021/09/03 03:46:21;;;;;;;;;37.75;31.75;;;;;-147.91;100.00;58652.34;5081489;28;45459;-96
2021/09/03 03:48:49;;;;;;;;;39.75;32.00;;;;;-147.91;100.00;58652.34;5063158;28;45579;-95
2021/09/03 03:51:17;;;;;;;;;40.00;32.25;;;;;-147.91;100.00;58652.34;5080994;28;45533;-96
2021/09/03 03:53:44;;;;;;;;;31.00;28.25;;;;;-147.91;100.00;58652.34;5063487;28;45328;-95
2021/09/03 03:56:13;;;;;;;;;32.25;28.50;;;;;-147.91;100.00;58652.34;5062891;28;45589;-96
2021/09/03 03:58:41;;;;;;;;;33.75;29.25;;;;;-147.91;100.00;58652.34;5080801;28;45402;-95
2021/09/03 04:01:09;;;;;;;;;33.75;25.25;;;;;-147.91;100.00;58652.34;5080413;28;45462;-95
2021/09/03 04:03:35;;;;;;;;;35.25;28.50;;;;;-147.91;100.00;58652.34;5063140;28;45270;-96
2021/09/03 04:06:03;;;;;;;;;33.00;27.25;;;;;-147.91;100.00;58652.34;5080917;28;45459;-95
2021/09/03 04:08:29;;;;;;;;;37.00;30.00;;;;;-147.91;100.00;58652.34;5080590;28;45419;-96
2021/09/03 04:10:57;;;;;;;;;26.75;25.75;;;;;-147.91;100.00;58652.34;5062595;28;45400;-95
2021/09/03 04:13:24;;;;;;;;;36.50;29.50;;;;;-147.91;100.00;58652.34;5080936;28;45247;-94
2021/09/03 04:15:52;;;;;;;;;35.75;30.25;;;;;-147.91;100.00;58652.34;5062356;28;45564;-96
2021/09/03 04:18:19;;;;;;;;;34.75;29.00;;;;;-147.91;100.00;58652.34;5080567;28;45373;-96
2021/09/03 04:20:46;;;;;;;;;30.50;27.00;;;;;-147.91;100.00;58652.34;5062685;28;45735;-95
2021/09/03 04:23:14;;;;;;;;;28.50;26.00;;;;;-147.91;100.00;58652.34;5062952;28;45427;-96
2021/09/03 04:25:42;;;;;;;;;32.25;27.25;;;;;-147.91;100.00;58652.34;5062476;28;45582;-96
2021/09/03 04:28:08;;;;;;;;;38.00;29.75;;;;;-147.91;100.00;58652.34;5063971;28;45569;-96
2021/09/03 04:30:37;;;;;;;;;32.75;29.00;;;;;-147.91;100.00;58652.34;5065353;28;45597;-96
2021/09/03 04:33:08;;;;;;;;;36.75;26.50;;;;;-147.91;100.00;58652.34;5081757;28;45400;-95
2021/09/03 04:35:35;;;;;;;;;33.25;28.25;;;;;-147.91;100.00;58652.34;5062935;28;45588;-96
2021/09/03 04:38:02;;;;;;;;;37.75;32.00;;;;;-147.91;100.00;58652.34;5062888;28;45709;-96
2021/09/03 04:40:30;;;;;;;;;32.25;28.75;;;;;-147.91;100.00;58652.34;5080189;28;45530;-96
2021/09/03 04:42:57;;;;;;;;;30.25;27.75;;;;;-147.91;100.00;58652.34;5062818;28;45301;-95
2021/09/03 04:45:24;;;;;;;;;33.50;28.50;;;;;-147.91;100.00;58652.34;5062493;28;45621;-96
2021/09/03 04:47:54;;;;;;;;;32.00;25.50;;;;;-147.91;100.00;58652.34;5080183;28;45684;-96
2021/09/03 04:50:21;;;;;;;;;34.00;29.50;;;;;-147.91;100.00;58652.34;5062136;28;45440;-94
2021/09/03 04:52:48;;;;;;;;;28.50;25.25;;;;;-147.91;100.00;58652.34;5080115;28;45204;-95
2021/09/03 04:55:16;;;;;;;;;30.50;26.00;;;;;-147.91;100.00;58652.34;5079951;28;45584;-94
2021/09/03 04:57:45;;;;;;;;;26.00;24.00;;;;;-147.91;100.00;58652.34;5061741;28;46117;-95
2021/09/03 05:00:16;;;;;;;;;34.50;26.75;;;;;-147.91;100.00;58652.34;5080424;28;45513;-95
2021/09/03 05:02:43;;;;;;;;;31.00;29.50;;;;;-147.91;100.00;58652.34;5063348;28;45434;-96
2021/09/03 05:05:11;;;;;;;;;27.25;24.00;;;;;-147.91;100.00;58652.34;5079989;28;45198;-95
2021/09/03 05:07:38;;;;;;;;;30.50;22.00;;;;;-147.91;100.00;58652.34;5044169;28;47571;-96
2021/09/03 05:10:08;;;;;;;;;27.50;25.00;;;;;-147.91;100.00;58652.34;5041962;28;45498;-95
2021/09/03 05:12:36;;;;;;;;;27.75;25.75;;;;;-147.91;100.00;58652.34;5041985;28;44797;-96
2021/09/03 05:15:09;;;;;;;;;30.00;23.00;;;;;-147.91;100.00;58652.34;5041727;28;45479;-95
2021/09/03 05:17:36;;;;;;;;;32.00;24.25;;;;;-147.91;100.00;58652.34;5041355;28;45355;-95
2021/09/03 05:20:06;;;;;;;;;30.25;24.50;;;;;-147.91;100.00;58652.34;5041664;28;45596;-96
2021/09/03 05:22:34;;;;;;;;;34.50;26.00;;;;;-147.91;100.00;58652.34;5041090;28;45319;-94
2021/09/03 05:25:02;;;;;;;;;39.00;29.75;;;;;-147.91;100.00;58652.34;5040793;28;45601;-95
2021/09/03 05:27:30;;;;;;;;;32.00;26.75;;;;;-147.91;100.00;58652.34;5058759;28;45479;-95
2021/09/03 05:29:57;;;;;;;;;42.00;30.00;;;;;-147.91;100.00;58652.34;5059113;28;45589;-95
2021/09/03 05:32:24;;;;;;;;;40.00;31.00;;;;;-147.91;100.00;58652.34;5058812;28;45426;-95
2021/09/03 05:34:52;;;;;;;;;39.50;32.00;;;;;-147.91;100.00;58652.34;5058721;28;45601;-96
2021/09/03 05:37:19;;;;;;;;;35.00;31.25;;;;;-147.91;100.00;58652.34;5059049;28;45146;-96
2021/09/03 05:39:46;;;;;;;;;43.75;33.75;;;;;-147.91;100.00;58652.34;5058423;28;45648;-94
2021/09/03 05:42:14;;;;;;;;;44.50;34.00;;;;;-147.91;100.00;58652.34;5041219;28;45333;-95
2021/09/03 05:44:40;;;;;;;;;38.75;32.00;;;;;-147.91;100.00;58652.34;5059030;28;45203;-95
2021/09/03 05:47:07;;;;;;;;;40.50;30.25;;;;;-147.91;100.00;58652.34;5058997;28;45665;-96
2021/09/03 05:49:35;;;;;;;;;35.00;28.75;;;;;-147.91;100.00;58652.34;5058801;28;45423;-95
2021/09/03 05:52:02;;;;;;;;;37.50;32.50;;;;;-147.91;100.00;58652.34;5041139;28;45359;-96
2021/09/03 05:54:30;;;;;;;;;39.25;31.25;;;;;-147.91;100.00;58652.34;5040597;28;45518;-95
2021/09/03 05:56:57;;;;;;;;;35.75;33.50;;;;;-147.91;100.00;58652.34;5040753;28;46686;-94
2021/09/03 05:59:24;;;;;;;;;39.75;31.50;;;;;-147.91;100.00;58652.34;5040473;28;45726;-95
2021/09/03 06:01:52;;;;;;;;;38.25;33.50;;;;;-147.91;100.00;58652.34;5058681;28;45342;-96
2021/09/03 06:04:18;;;;;;;;;35.50;32.00;;;;;-147.91;100.00;58652.34;5057600;28;46295;-93
2021/09/03 06:06:45;;;;;;;;;41.00;32.25;;;;;-147.91;100.00;58652.34;5068135;28;45441;-95
2021/09/03 06:09:13;;;;;;;;;36.75;31.50;;;;;-147.91;100.00;58652.34;5079846;28;45326;-95
2021/09/03 06:11:43;;;;;;;;;36.00;30.75;;;;;-147.91;100.00;58652.34;5091907;27;44633;-96
2021/09/03 06:14:29;;;;;;;;;41.75;32.25;;;;;-147.91;100.00;58652.34;5095499;28;44782;-95
2021/09/03 06:17:17;;;;;;;;;39.50;32.00;;;;;-147.91;100.00;58652.34;5088697;28;45161;-96
2021/09/03 06:19:48;;;;;;;;;37.50;30.75;;;;;-147.91;100.00;58652.34;5087652;28;45216;-96
2021/09/03 06:22:21;;;;;;;;;33.75;31.75;;;;;-147.91;100.00;58652.34;5066669;28;44787;-94
2021/09/03 06:24:52;;;;;;;;;42.75;32.00;;;;;-147.91;100.00;58652.34;5093729;28;45482;-96
2021/09/03 06:27:19;;;;;;;;;40.75;33.00;;;;;-147.91;100.00;58652.34;5084094;28;45291;-96
2021/09/03 06:29:53;;;;;;;;;33.00;29.75;;;;;-147.91;100.00;58652.34;5094196;28;44949;-95
2021/09/03 06:32:35;;;;;;;;;46.25;33.75;;;;;-147.91;100.00;58652.34;5076242;28;44781;-96
2021/09/03 06:35:05;;;;;;;;;37.25;32.50;;;;;-147.91;100.00;58652.34;5086891;28;45606;-96
2021/09/03 06:37:39;;;;;;;;;34.25;29.00;;;;;-147.91;100.00;58652.34;5071799;28;45566;-96
2021/09/03 06:40:12;;;;;;;;;34.75;28.50;;;;;-147.91;100.00;58652.34;5088256;27;44919;-96
2021/09/03 06:42:40;;;;;;;;;38.50;29.50;;;;;-147.91;100.00;58652.34;5066079;28;45321;-95
2021/09/03 06:45:10;;;;;;;;;38.00;32.75;;;;;-147.91;100.00;58652.34;5068069;28;45344;-93
2021/09/03 06:47:43;;;;;;;;;36.25;31.25;;;;;-147.91;100.00;58652.34;5071902;28;46501;-96
2021/09/03 06:50:13;;;;;;;;;45.50;33.00;;;;;-147.91;100.00;58652.34;5068269;28;45852;-96
2021/09/03 06:52:41;;;;;;;;;39.50;31.25;;;;;-147.91;100.00;58652.34;5067043;28;45333;-95
2021/09/03 06:55:09;;;;;;;;;30.00;26.50;;;;;-147.91;100.00;58652.34;5082873;28;45435;-96
2021/09/03 06:57:35;;;;;;;;;38.00;32.75;;;;;-147.91;100.00;58652.34;5069264;22;47194;-82
2021/09/03 07:00:01;;;;;;;;;34.00;29.75;;;;;-147.91;100.00;58652.34;5106601;22;45475;-96
2021/09/03 07:02:29;;;;;;;;;33.25;30.75;;;;;-147.91;100.00;58652.34;5048660;28;45249;-95
2021/09/03 07:04:56;;;;;;;;;40.00;31.25;;;;;-147.91;100.00;58652.34;5061234;28;45574;-93
2021/09/03 07:07:22;;;;;;;;;37.50;33.50;;;;;-147.91;100.00;58652.34;5046960;28;48336;-94
2021/09/03 07:09:52;;;;;;;;;36.50;30.25;;;;;-147.91;100.00;58652.34;5064550;28;45682;-95
2021/09/03 07:12:20;;;;;;;;;41.25;33.25;;;;;-147.91;100.00;58652.34;5067930;28;44784;-93
2021/09/03 07:14:46;;;;;;;;;25.00;21.25;;;;;-147.91;100.00;58652.34;5046744;28;45419;-95
2021/09/03 07:17:13;;;;;;;;;24.50;22.75;;;;;-147.91;100.00;58652.34;5064316;28;45328;-93
2021/09/03 07:19:40;;;;;;;;;23.00;21.75;;;;;-147.91;100.00;58652.34;5064580;28;45437;-95
2021/09/03 07:22:08;;;;;;;;;21.50;20.25;;;;;-147.91;100.00;58652.34;5046614;28;45261;-94
2021/09/03 07:24:36;;;;;;;;;21.75;19.50;;;;;-147.91;100.00;58652.34;5064736;28;45628;-96
2021/09/03 07:34:50;;;;;;;;;21.75;20.75;;;;;-147.91;100.00;58652.34;4735314;22;46402;-80
2021/09/03 07:37:16;;;;;;;;;17.50;17.50;;;;;-147.91;100.00;58652.34;5057818;27;45537;-77
2021/09/03 07:39:42;;;;;;;;;23.50;20.00;;;;;-147.91;100.00;58652.34;5054829;27;45625;-77
2021/09/03 07:42:07;;;;;;;;;22.75;16.50;;;;;-147.91;100.00;58652.34;5052482;27;45925;-80
2021/09/03 07:44:32;;;;;;;;;19.25;15.25;;;;;-147.91;100.00;58652.34;5061704;27;45600;-79
2021/09/03 07:46:58;;;;;;;;;20.75;19.00;;;;;-147.91;100.00;58652.34;5062785;27;45590;-79
2021/09/03 07:49:23;;;;;;;;;18.25;17.00;;;;;-147.91;100.00;58652.34;5060543;27;47425;-81
2021/09/03 07:51:49;;;;;;;;;24.50;18.00;;;;;-147.91;100.00;58652.34;5058157;27;45759;-80
2021/09/03 07:54:14;;;;;;;;;25.25;22.50;;;;;-147.91;100.00;58652.34;5051317;27;45790;-79
2021/09/03 07:59:27;;;;;;;;;20.50;15.50;;;;;-147.91;100.00;58652.34;5110268;27;45218;-95
2021/09/03 08:01:54;;;;;;;;;23.75;19.75;;;;;-147.91;100.00;58652.34;5087195;27;45427;-92
2021/09/03 08:04:23;;;;;;;;;24.00;18.25;;;;;-147.91;100.00;58652.34;5086622;27;45543;-95
2021/09/03 08:07:17;;;;;;;;;23.00;17.75;;;;;-147.91;100.00;58652.34;5092334;27;47831;-96
2021/09/03 08:09:59;;;;;;;;;22.50;18.00;;;;;-147.91;100.00;58652.34;5106596;27;45352;-95
2021/09/03 08:12:28;;;;;;;;;18.50;18.25;;;;;-147.91;100.00;58652.34;5087270;27;45348;-96
2021/09/03 08:14:54;;;;;;;;;18.75;18.25;;;;;-147.91;100.00;58652.34;5074883;22;45653;-82
2021/09/03 08:17:20;;;;;;;;;23.25;16.25;;;;;-147.91;100.00;58652.34;5070754;27;47374;-81
2021/09/03 08:19:45;;;;;;;;;26.00;23.00;;;;;-147.91;100.00;58652.34;5080323;27;44967;-82
2021/09/03 08:22:11;;;;;;;;;20.00;18.50;;;;;-147.91;100.00;58652.34;5080653;27;47715;-81
2021/09/03 08:24:39;;;;;;;;;19.25;17.25;;;;;-147.91;100.00;58652.34;5134848;22;45665;-93
2021/09/03 08:27:06;;;;;;;;;21.25;19.75;;;;;-147.91;100.00;58652.34;5082593;28;45491;-95
2021/09/03 08:29:33;;;;;;;;;24.50;17.00;;;;;-147.91;100.00;58652.34;5066024;28;45294;-94
2021/09/03 08:31:59;;;;;;;;;11.75;9.25;;;;;-147.91;100.00;58652.34;5077507;22;45349;-81
2021/09/03 08:34:24;;;;;;;;;23.25;17.75;;;;;-147.91;100.00;58652.34;5063789;28;45829;-81
2021/09/03 08:36:49;;;;;;;;;18.75;16.75;;;;;-147.91;100.00;58652.34;5062152;28;45930;-80
2021/09/03 08:39:15;;;;;;;;;20.75;17.25;;;;;-147.91;100.00;58652.34;5061092;27;45553;-81
2021/09/03 08:41:41;;;;;;;;;19.75;18.00;;;;;-147.91;100.00;58652.34;5067952;27;45583;-81
2021/09/03 08:44:07;;;;;;;;;24.25;19.00;;;;;-147.91;100.00;58652.34;5062831;27;45886;-81
2021/09/03 08:46:34;;;;;;;;;19.00;17.25;;;;;-147.91;100.00;58652.34;5063184;28;45721;-80
2021/09/03 08:49:06;;;;;;;;;20.00;16.25;;;;;-147.91;100.00;58652.34;5060962;27;47145;-81
2021/09/03 08:51:32;;;;;;;;;18.75;15.25;;;;;-147.91;100.00;58652.34;5053329;27;46706;-80
2021/09/03 08:54:00;;;;;;;;;23.00;19.75;;;;;-147.91;100.00;58652.34;5092379;22;45894;-93
2021/09/03 08:56:28;;;;;;;;;19.25;18.25;;;;;-147.91;100.00;58652.34;5065095;28;45693;-95
2021/09/03 08:58:56;;;;;;;;;18.00;18.00;;;;;-147.91;100.00;58652.34;5064099;28;45506;-93
2021/09/03 09:01:24;;;;;;;;;17.50;14.50;;;;;-147.91;100.00;58652.34;5082561;28;45261;-94
2021/09/03 09:03:53;;;;;;;;;19.00;16.75;;;;;-147.91;100.00;58652.34;5064722;28;45351;-94
2021/09/03 09:08:55;;;;;;;;;18.50;16.25;;;;;-147.91;100.00;58652.34;5053556;27;45762;-80
2021/09/03 09:11:25;;;;;;;;;21.00;18.25;;;;;-147.91;100.00;58652.34;5056970;27;46249;-80
2021/09/03 09:13:50;;;;;;;;;16.50;14.00;;;;;-147.91;100.00;58652.34;5049721;27;47059;-80
2021/09/03 09:16:18;;;;;;;;;16.25;16.25;;;;;-147.91;100.00;58652.34;5025719;28;46498;-80
2021/09/03 09:18:51;;;;;;;;;17.00;16.00;;;;;-147.91;100.00;58652.34;5042214;27;55612;-80
2021/09/03 09:21:30;;;;;;;;;17.25;15.50;;;;;-147.91;100.00;58652.34;5048671;27;45831;-80
2021/09/03 09:31:37;;;;;;;;;16.75;14.25;;;;;-147.91;100.00;58652.34;5080942;28;45270;-96
2021/09/03 09:34:21;;;;;;;;;15.75;14.50;;;;;-147.91;100.00;58652.34;5081804;28;45631;-96
2021/09/03 09:36:51;;;;;;;;;17.50;15.75;;;;;-147.91;100.00;58652.34;5083048;28;45382;-96
2021/09/03 09:39:20;;;;;;;;;19.00;16.00;;;;;-147.91;100.00;58652.34;5081496;28;45430;-96
2021/09/03 09:41:59;;;;;;;;;15.50;14.00;;;;;-147.91;100.00;58652.34;5064242;28;45412;-93
2021/09/03 09:44:31;;;;;;;;;19.25;16.25;;;;;-147.91;100.00;58652.34;5082457;28;45501;-93
2021/09/03 09:47:12;;;;;;;;;17.50;14.75;;;;;-147.91;100.00;58652.34;5082407;28;45353;-95
2021/09/03 09:49:42;;;;;;;;;15.00;14.25;;;;;-147.91;100.00;58652.34;5082407;28;45281;-94
2021/09/03 09:52:11;;;;;;;;;19.00;15.50;;;;;-147.91;100.00;58652.34;5064452;28;45232;-94
2021/09/03 09:54:38;;;;;;;;;16.75;15.50;;;;;-147.91;100.00;58652.34;5082064;28;45436;-93
2021/09/03 09:57:06;;;;;;;;;18.50;18.25;;;;;-147.91;100.00;58652.34;5063465;28;47529;-96
2021/09/03 09:59:36;;;;;;;;;18.00;16.00;;;;;-147.91;100.00;58652.34;5082697;28;45157;-96
2021/09/03 10:02:05;;;;;;;;;19.25;15.50;;;;;-147.91;100.00;58652.34;5064658;28;45482;-95
2021/09/03 10:04:32;;;;;;;;;21.50;17.75;;;;;-147.91;100.00;58652.34;5081547;28;45331;-93
2021/09/03 10:07:01;;;;;;;;;23.00;18.50;;;;;-147.91;100.00;58652.34;5083656;28;45247;-94
2021/09/03 10:09:33;;;;;;;;;18.25;16.75;;;;;-147.91;100.00;58652.34;5063826;28;45353;-96
2021/09/03 10:12:02;;;;;;;;;19.25;16.25;;;;;-147.91;100.00;58652.34;5082671;28;45247;-94
2021/09/03 10:14:33;;;;;;;;;21.75;19.25;;;;;-147.91;100.00;58652.34;5085199;28;45320;-96
2021/09/03 10:17:04;;;;;;;;;17.00;17.00;;;;;-147.91;100.00;58652.34;5068265;28;46205;-95
2021/09/03 10:19:37;;;;;;;;;19.00;17.25;;;;;-147.91;100.00;58652.34;5083547;28;45523;-94
2021/09/03 10:22:10;;;;;;;;;16.75;16.75;;;;;-147.91;100.00;58652.34;5082460;28;45191;-96
2021/09/03 10:24:38;;;;;;;;;21.00;18.25;;;;;-147.91;100.00;58652.34;5065378;28;45169;-96
2021/09/03 10:27:09;;;;;;;;;19.25;18.50;;;;;-147.91;100.00;58652.34;5065018;28;46202;-96
2021/09/03 10:29:40;;;;;;;;;20.75;16.00;;;;;-147.91;100.00;58652.34;5067165;28;45256;-96
2021/09/03 10:32:06;;;;;;;;;17.25;15.25;;;;;-147.91;100.00;58652.34;5083984;27;45292;-94
2021/09/03 10:34:39;;;;;;;;;19.50;16.50;;;;;-147.91;100.00;58652.34;5091415;27;45533;-96
2021/09/03 10:37:15;;;;;;;;;16.75;16.75;;;;;-147.91;100.00;58652.34;5104647;27;46167;-96
2021/09/03 10:39:55;;;;;;;;;17.00;16.25;;;;;-147.91;100.00;58652.34;5085809;27;45442;-96
2021/09/03 10:42:45;;;;;;;;;15.75;14.75;;;;;-147.91;100.00;58652.34;5096032;27;45252;-96
2021/09/03 10:45:21;;;;;;;;;20.50;18.00;;;;;-147.91;100.00;58652.34;5090104;27;46246;-96
2021/09/03 10:47:59;;;;;;;;;17.00;15.75;;;;;-147.91;100.00;58652.34;5106104;27;45366;-95
2021/09/03 10:50:55;;;;;;;;;17.00;14.75;;;;;-147.91;100.00;58652.34;5089415;27;45186;-94
2021/09/03 10:53:30;;;;;;;;;18.25;15.75;;;;;-147.91;100.00;58652.34;5106462;27;45319;-96
2021/09/03 10:56:08;;;;;;;;;16.75;15.50;;;;;-147.91;100.00;58652.34;5088731;27;45583;-96
2021/09/03 10:58:37;;;;;;;;;21.00;18.75;;;;;-147.91;100.00;58652.34;5087228;27;45331;-96
2021/09/03 11:01:10;;;;;;;;;19.75;16.25;;;;;-147.91;100.00;58652.34;5106750;27;45379;-96
2021/09/03 11:04:06;;;;;;;;;13.25;12.50;;;;;-147.91;100.00;58652.34;5107184;27;45791;-96
2021/09/03 11:06:57;;;;;;;;;20.50;17.25;;;;;-147.91;100.00;58652.34;5106597;27;45654;-96
2021/09/03 11:09:30;;;;;;;;;16.00;16.00;;;;;-147.91;100.00;58652.34;5109758;27;45297;-96
2021/09/03 11:12:07;;;;;;;;;23.25;18.00;;;;;-147.91;100.00;58652.34;5105380;27;44823;-94
2021/09/03 11:14:34;;;;;;;;;18.00;17.00;;;;;-147.91;100.00;58652.34;5106224;27;45503;-96
2021/09/03 11:17:14;;;;;;;;;19.50;17.00;;;;;-147.91;100.00;58652.34;5106246;27;45459;-96
2021/09/03 11:19:48;;;;;;;;;17.50;17.25;;;;;-147.91;100.00;58652.34;5088420;27;45886;-96
2021/09/03 11:22:20;;;;;;;;;16.50;15.50;;;;;-147.91;100.00;58652.34;5095433;27;44848;-96
2021/09/03 11:24:52;;;;;;;;;18.50;16.50;;;;;-147.91;100.00;58652.34;5105438;27;45488;-94